Time;durP1;ratioP1;P1;durP2;ratioP2;P2;SDS_P1;SDS_P2;PMS_P1;PMS_P2;Temp;Humidity;BMP_temperature;BMP_pressure;BME280_temperature;BME280_humidity;BME280_pressure;Samples;Min_cycle;Max_cycle;Signal;HPM_P1;HPM_P2
2023/09/05 00:01:45;;;;;;;6.50;4.70;;;;;;;-145.63;51.50;39108.34;5023441;28;20030;-71
2023/09/05 00:04:13;;;;;;;5.60;4.15;;;;;;;-145.63;51.30;39106.38;5021721;28;20033;-70
2023/09/05 00:06:40;;;;;;;5.72;4.45;;;;;;;-145.63;51.47;39079.00;5028034;28;20325;-68
2023/09/05 00:09:06;;;;;;;7.75;4.57;;;;;;;-145.63;51.41;39110.28;5023524;28;20285;-70
2023/09/05 00:11:33;;;;;;;6.82;4.63;;;;;;;-145.63;51.54;39094.66;5023045;28;20044;-69
2023/09/05 00:14:01;;;;;;;7.32;4.70;;;;;;;-145.63;51.44;39114.22;5017071;28;20022;-69
2023/09/05 00:16:28;;;;;;;6.15;4.10;;;;;;;-145.63;51.46;39098.56;5021946;28;20041;-67
2023/09/05 00:18:54;;;;;;;6.65;4.20;;;;;;;-145.63;51.45;39110.28;5023066;28;20198;-68
2023/09/05 00:21:20;;;;;;;7.40;4.20;;;;;;;-145.63;51.72;39116.16;5022114;28;20025;-69
2023/09/05 00:23:45;;;;;;;7.43;3.92;;;;;;;-145.63;51.87;39073.13;5022755;28;20057;-68
2023/09/05 00:26:11;;;;;;;6.47;4.25;;;;;;;-145.63;51.41;39098.56;5022858;28;20041;-67
2023/09/05 00:28:37;;;;;;;6.07;4.28;;;;;;;-145.63;51.45;39069.22;5022959;28;20034;-68
2023/09/05 00:31:02;;;;;;;6.00;4.25;;;;;;;-145.63;51.46;39092.69;5022561;28;20064;-68
2023/09/05 00:33:31;;;;;;;7.20;4.68;;;;;;;-145.63;51.57;39110.28;5022876;28;20021;-68
2023/09/05 00:35:57;;;;;;;5.30;4.15;;;;;;;-145.63;51.58;38973.41;5021707;28;20057;-68
2023/09/05 00:38:23;;;;;;;5.90;4.25;;;;;;;-145.63;51.92;39112.25;5022131;28;20092;-68
2023/09/05 00:40:49;;;;;;;6.60;4.35;;;;;;;-145.63;51.89;39116.16;5020008;28;21155;-69
2023/09/05 00:43:19;;;;;;;6.85;4.20;;;;;;;-145.63;51.86;39135.72;5029432;28;20036;-69
2023/09/05 00:45:49;;;;;;;5.57;4.35;;;;;;;-145.63;52.10;38382.88;5023072;28;20029;-68
2023/09/05 00:48:16;;;;;;;5.00;4.05;;;;;;;-145.63;52.07;39165.06;5014176;28;20101;-71
2023/09/05 00:50:42;;;;;;;9.30;4.50;;;;;;;-145.63;51.77;39102.47;5024169;28;20041;-70
2023/09/05 00:53:08;;;;;;;7.07;4.45;;;;;;;-145.63;52.11;39149.41;5008565;28;20083;-70
2023/09/05 00:55:34;;;;;;;6.63;3.95;;;;;;;-145.63;52.18;39090.75;5032696;28;20089;-68
2023/09/05 00:58:00;;;;;;;8.50;4.43;;;;;;;-145.63;52.27;39141.59;5023986;28;20030;-69
2023/09/05 01:00:29;;;;;;;7.38;4.20;;;;;;;-145.63;52.35;39143.53;5022455;28;20022;-69
2023/09/05 01:02:55;;;;;;;5.90;4.20;;;;;;;-145.63;52.35;39145.50;5021465;28;20084;-69
2023/09/05 01:05:27;;;;;;;7.03;4.53;;;;;;;-145.63;52.25;39176.78;5024366;28;20034;-69
2023/09/05 01:08:02;;;;;;;5.07;3.78;;;;;;;-145.63;52.31;39110.28;5029446;28;20037;-70
2023/09/05 01:10:55;;;;;;;8.45;4.10;;;;;;;-145.63;52.36;38449.34;5016395;28;20028;-69
2023/09/05 01:13:27;;;;;;;5.63;4.07;;;;;;;-145.63;52.64;39178.75;5019204;28;20022;-70
2023/09/05 01:15:54;;;;;;;6.45;4.60;;;;;;;-145.63;52.38;39133.75;5026672;28;20028;-69
2023/09/05 01:18:23;;;;;;;5.35;4.10;;;;;;;-145.63;52.72;39135.72;5025996;28;20030;-67
2023/09/05 01:21:07;;;;;;;7.43;4.80;;;;;;;-145.63;53.00;39114.22;5025888;28;20186;-68
2023/09/05 01:23:52;;;;;;;8.20;4.63;;;;;;;-145.63;52.91;39143.53;5025940;28;20101;-67
2023/09/05 01:26:19;;;;;;;5.90;4.65;;;;;;;-145.63;52.73;39143.53;5025714;28;20314;-68
2023/09/05 01:28:46;;;;;;;7.85;4.40;;;;;;;-145.63;52.83;39122.03;5026352;28;20323;-69
2023/09/05 01:31:13;;;;;;;11.07;4.22;;;;;;;-145.63;52.67;39143.53;5026216;28;20356;-69
2023/09/05 01:33:40;;;;;;;6.35;4.07;;;;;;;-145.63;52.76;39116.16;5026347;28;20061;-69
2023/09/05 01:36:06;;;;;;;6.50;4.18;;;;;;;-145.63;52.70;39141.59;5025926;28;20085;-70
2023/09/05 01:38:33;;;;;;;7.07;4.03;;;;;;;-145.63;52.88;39137.69;5025549;28;20346;-70
2023/09/05 01:40:59;;;;;;;8.30;4.68;;;;;;;-145.63;52.81;39147.44;5026063;28;20326;-69
2023/09/05 01:43:25;;;;;;;6.85;4.53;;;;;;;-145.63;52.83;39155.28;5026041;28;20034;-70
2023/09/05 01:45:50;;;;;;;9.05;4.10;;;;;;;-145.63;52.63;39120.06;5025302;28;20114;-69
2023/09/05 01:48:16;;;;;;;7.10;4.35;;;;;;;-145.63;52.83;39165.06;5025601;28;20095;-70
2023/09/05 01:50:42;;;;;;;6.65;4.70;;;;;;;-145.63;52.95;39161.13;5025857;28;20033;-70
2023/09/05 01:53:07;;;;;;;7.82;3.88;;;;;;;-145.63;53.00;39125.94;5025852;28;20030;-70
2023/09/05 01:55:33;;;;;;;6.07;4.38;;;;;;;-145.63;53.08;39127.91;5027616;28;20030;-69
2023/09/05 01:57:58;;;;;;;7.95;5.15;;;;;;;-145.63;53.25;39143.53;5029867;28;20326;-70
2023/09/05 02:00:24;;;;;;;6.28;4.32;;;;;;;-145.63;53.08;39110.28;5025587;28;20026;-70
2023/09/05 02:02:50;;;;;;;7.25;4.47;;;;;;;-145.63;53.25;39184.59;5025841;28;20030;-70
2023/09/05 02:05:15;;;;;;;6.78;4.22;;;;;;;-145.63;53.32;39147.44;5025348;28;20195;-70
2023/09/05 02:07:41;;;;;;;5.80;4.35;;;;;;;-145.63;53.13;39168.97;5025629;28;20021;-70
2023/09/05 02:10:07;;;;;;;6.70;5.03;;;;;;;-145.63;53.39;39168.97;5025484;28;20071;-69
2023/09/05 02:12:35;;;;;;;7.13;4.78;;;;;;;-145.63;53.75;39159.19;5024157;28;20061;-71
2023/09/05 02:15:02;;;;;;;8.95;4.70;;;;;;;-145.63;53.70;39149.41;5025479;28;20391;-69
2023/09/05 02:17:30;;;;;;;10.18;4.75;;;;;;;-145.63;53.57;39180.69;5024255;28;20041;-70
2023/09/05 02:19:57;;;;;;;8.88;4.90;;;;;;;-145.63;53.62;39186.56;5025185;28;20030;-69
2023/09/05 02:22:23;;;;;;;9.55;4.75;;;;;;;-145.63;53.85;39139.63;5025022;28;20101;-68
2023/09/05 02:24:49;;;;;;;7.82;5.32;;;;;;;-145.63;53.53;39135.72;5009578;28;20045;-69
2023/09/05 02:27:15;;;;;;;10.13;4.60;;;;;;;-145.63;53.76;39190.47;5024656;28;20064;-69
2023/09/05 02:29:41;;;;;;;8.70;5.30;;;;;;;-145.63;53.84;39212.00;5024567;28;20072;-69
2023/09/05 02:32:06;;;;;;;8.68;5.22;;;;;;;-145.63;53.96;39174.84;5011049;28;20033;-68
2023/09/05 02:34:32;;;;;;;11.07;5.22;;;;;;;-145.63;54.30;39184.59;5022141;28;20033;-67
2023/09/05 02:36:59;;;;;;;7.90;5.28;;;;;;;-145.63;54.24;39196.34;5025312;28;20187;-68
2023/09/05 02:39:25;;;;;;;7.90;4.80;;;;;;;-145.63;53.98;39210.03;5024597;28;20324;-67
2023/09/05 02:41:51;;;;;;;9.20;5.25;;;;;;;-145.63;54.17;39184.59;5024602;28;20033;-67
2023/09/05 02:44:16;;;;;;;9.85;6.55;;;;;;;-145.63;54.24;39198.31;5024524;28;20046;-68
2023/09/05 02:46:44;;;;;;;8.85;5.00;;;;;;;-145.63;54.44;39300.00;5024721;28;20068;-69
2023/09/05 02:49:10;;;;;;;12.20;5.70;;;;;;;-145.63;54.53;39206.13;5024448;28;20037;-68
2023/09/05 02:51:35;;;;;;;9.43;5.65;;;;;;;-145.63;54.25;39206.13;5024605;28;20103;-68
2023/09/05 02:54:01;;;;;;;9.73;5.72;;;;;;;-145.63;54.28;39172.88;5027241;28;20038;-68
2023/09/05 02:56:27;;;;;;;8.85;5.60;;;;;;;-145.63;54.30;39170.91;5027094;28;20040;-69
2023/09/05 02:58:52;;;;;;;10.82;6.07;;;;;;;-145.63;54.16;39168.97;5027096;28;20214;-68
2023/09/05 03:01:18;;;;;;;14.02;6.30;;;;;;;-145.63;54.07;39178.75;5024247;28;20298;-67
2023/09/05 03:03:43;;;;;;;14.05;5.88;;;;;;;-145.63;54.11;39170.91;5023199;28;20032;-68
2023/09/05 03:06:14;;;;;;;9.82;6.28;;;;;;;-145.63;54.18;39212.00;5024173;28;20036;-69
2023/09/05 03:08:42;;;;;;;9.70;5.60;;;;;;;-145.63;54.24;39174.84;5024378;28;20314;-68
2023/09/05 03:11:08;;;;;;;10.95;5.90;;;;;;;-145.63;54.21;39165.06;5023108;28;20026;-68
2023/09/05 03:13:34;;;;;;;14.43;6.00;;;;;;;-145.63;54.49;39176.78;5024040;28;20025;-68
2023/09/05 03:16:00;;;;;;;11.13;6.07;;;;;;;-145.63;54.53;39192.44;5023905;28;20057;-68
2023/09/05 03:18:25;;;;;;;9.93;6.03;;;;;;;-145.63;54.34;39217.84;5024076;28;20343;-69
2023/09/05 03:20:51;;;;;;;10.85;5.65;;;;;;;-145.63;54.57;39168.97;5024029;28;20033;-68
2023/09/05 03:23:18;;;;;;;11.60;5.60;;;;;;;-145.63;54.44;39135.72;5034645;28;20219;-68
2023/09/05 03:25:44;;;;;;;9.52;6.05;;;;;;;-145.63;54.08;39194.38;5024109;28;20037;-69
2023/09/05 03:28:13;;;;;;;10.55;6.60;;;;;;;-145.63;54.55;39184.59;5023478;28;20045;-68
2023/09/05 03:30:42;;;;;;;11.18;6.30;;;;;;;-145.63;54.35;39188.53;5023322;28;20272;-69
2023/09/05 03:33:09;;;;;;;11.98;6.47;;;;;;;-145.63;54.33;39168.97;5023327;28;20025;-68
2023/09/05 03:35:35;;;;;;;10.30;5.80;;;;;;;-145.63;54.33;39149.41;5023654;28;20202;-70
2023/09/05 03:38:02;;;;;;;12.05;5.85;;;;;;;-145.63;54.52;39147.44;5018578;28;20022;-69
2023/09/05 03:40:28;;;;;;;8.23;5.93;;;;;;;-145.63;54.26;39186.56;5020881;28;20026;-69
2023/09/05 03:42:53;;;;;;;7.90;6.03;;;;;;;-145.63;54.53;39196.34;5023599;28;20021;-70
2023/09/05 03:45:19;;;;;;;10.68;5.95;;;;;;;-145.63;54.43;38797.41;5006096;28;20340;-68
2023/09/05 03:47:45;;;;;;;9.80;5.43;;;;;;;-145.63;54.40;39155.28;5023803;28;20022;-70
2023/09/05 03:50:13;;;;;;;9.32;5.93;;;;;;;-145.63;54.53;39165.06;5023424;28;20024;-71
2023/09/05 03:52:38;;;;;;;9.85;5.45;;;;;;;-145.63;54.59;39123.97;5023548;28;20068;-70
2023/09/05 03:55:06;;;;;;;11.55;5.90;;;;;;;-145.63;54.51;39163.09;5029135;28;20029;-68
2023/09/05 03:57:31;;;;;;;11.27;5.72;;;;;;;-145.63;54.44;39176.78;5023347;28;20064;-69
2023/09/05 03:59:57;;;;;;;11.93;5.90;;;;;;;-145.63;54.45;39141.59;5023302;28;20017;-69
2023/09/05 04:02:22;;;;;;;11.25;5.75;;;;;;;-145.63;54.34;39127.91;5023220;28;20287;-68
2023/09/05 04:04:48;;;;;;;12.32;5.50;;;;;;;-145.63;54.19;39133.75;5025435;28;20017;-69
2023/09/05 04:07:14;;;;;;;7.45;4.10;;;;;;;-145.63;54.13;39149.41;5024355;28;20229;-69
2023/09/05 04:09:39;;;;;;;8.25;4.60;;;;;;;-145.63;54.28;39129.84;5023165;28;20096;-69
2023/09/05 04:12:05;;;;;;;5.45;4.82;;;;;;;-145.63;54.25;39141.59;5021232;28;20030;-69
2023/09/05 04:14:31;;;;;;;9.70;5.00;;;;;;;-145.63;53.80;39129.84;5028504;28;20337;-69
2023/09/05 04:16:56;;;;;;;6.78;4.93;;;;;;;-145.63;54.17;39133.75;5027692;28;20057;-68
2023/09/05 04:19:22;;;;;;;6.40;4.40;;;;;;;-145.63;53.70;39100.50;5023018;28;20262;-69
2023/09/05 04:21:48;;;;;;;6.55;4.25;;;;;;;-145.63;53.52;39123.97;5023123;28;20034;-68
2023/09/05 04:24:13;;;;;;;4.22;3.80;;;;;;;-145.63;53.78;39096.59;5022772;28;20044;-69
2023/09/05 04:26:39;;;;;;;6.50;4.18;;;;;;;-145.63;53.54;39137.69;5023335;28;20183;-68
2023/09/05 04:29:05;;;;;;;8.55;4.32;;;;;;;-145.63;53.90;39159.19;5022872;28;20029;-71
2023/09/05 04:31:31;;;;;;;4.63;4.20;;;;;;;-145.63;53.54;39118.13;5022303;28;20183;-70
2023/09/05 04:33:56;;;;;;;6.20;3.95;;;;;;;-145.63;53.33;39112.25;5023145;28;20026;-71
2023/09/05 04:36:25;;;;;;;5.68;4.10;;;;;;;-145.63;53.57;39122.03;5022945;28;20184;-69
2023/09/05 04:38:51;;;;;;;6.55;3.78;;;;;;;-145.63;53.43;39129.84;5022398;28;20299;-69
2023/09/05 04:41:19;;;;;;;5.95;3.88;;;;;;;-145.63;53.19;39108.34;5022158;28;20029;-69
2023/09/05 04:43:44;;;;;;;4.30;3.70;;;;;;;-145.63;53.29;39090.75;5023088;28;20175;-68
2023/09/05 04:46:10;;;;;;;8.65;3.85;;;;;;;-145.63;53.23;39092.69;5023562;28;20044;-69
2023/09/05 04:48:35;;;;;;;7.90;3.97;;;;;;;-145.63;53.22;39110.28;5026329;28;20030;-68
2023/09/05 04:51:04;;;;;;;7.22;4.05;;;;;;;-145.63;53.17;39125.94;5028208;28;20032;-68
2023/09/05 04:53:31;;;;;;;5.50;4.00;;;;;;;-145.63;53.24;39069.22;5034364;28;20306;-68
2023/09/05 04:55:59;;;;;;;9.40;3.85;;;;;;;-145.63;52.79;39055.53;5030471;28;20058;-67
2023/09/05 04:58:30;;;;;;;6.65;4.22;;;;;;;-145.63;52.82;39051.63;5028436;28;20081;-67
2023/09/05 05:01:01;;;;;;;6.65;3.47;;;;;;;-145.63;52.79;39075.09;5025164;28;20053;-68
2023/09/05 05:03:32;;;;;;;6.25;4.43;;;;;;;-145.63;52.51;39108.34;5025923;28;20061;-68
2023/09/05 05:05:58;;;;;;;7.60;4.10;;;;;;;-145.63;52.32;39077.06;5023243;28;20030;-69
2023/09/05 05:08:24;;;;;;;5.68;3.92;;;;;;;-145.63;52.25;39102.47;5033872;28;20101;-69
2023/09/05 05:10:50;;;;;;;4.80;3.80;;;;;;;-145.63;52.02;39055.53;5031117;28;20206;-68
2023/09/05 05:13:15;;;;;;;7.72;4.18;;;;;;;-145.63;52.10;39090.75;5022450;28;20097;-68
2023/09/05 05:15:45;;;;;;;6.07;4.35;;;;;;;-145.63;52.14;39084.88;5021824;28;20025;-69
2023/09/05 05:18:11;;;;;;;4.22;3.58;;;;;;;-145.63;52.40;39059.44;5022173;28;20097;-68
2023/09/05 05:20:37;;;;;;;4.07;3.45;;;;;;;-145.63;52.72;39043.81;5004746;28;20044;-68
2023/09/05 05:23:04;;;;;;;6.18;3.70;;;;;;;-145.63;52.47;39045.75;5022357;28;20053;-66
2023/09/05 05:25:30;;;;;;;3.83;3.40;;;;;;;-145.63;51.76;39020.34;5022446;28;20104;-67
2023/09/05 05:27:55;;;;;;;5.93;3.72;;;;;;;-145.63;51.72;39051.63;5020474;28;20036;-67
2023/09/05 05:30:21;;;;;;;5.38;4.10;;;;;;;-145.63;51.33;39028.16;5028705;28;20034;-67
2023/09/05 05:32:47;;;;;;;6.82;3.40;;;;;;;-145.63;51.02;39004.69;5030976;28;20032;-67
2023/09/05 05:35:13;;;;;;;5.05;3.72;;;;;;;-145.63;51.16;39022.28;5021991;28;20030;-67
2023/09/05 05:37:39;;;;;;;7.78;3.78;;;;;;;-145.63;51.34;38975.34;5022111;28;20049;-66
2023/09/05 05:40:05;;;;;;;4.90;3.47;;;;;;;-145.63;51.14;38965.56;5022310;28;20033;-66
2023/09/05 05:42:31;;;;;;;7.80;3.67;;;;;;;-145.63;50.92;38996.88;5035856;28;20045;-65
2023/09/05 05:44:56;;;;;;;5.15;3.67;;;;;;;-145.63;50.72;39008.59;5025281;28;20034;-66
2023/09/05 05:47:22;;;;;;;5.65;3.30;;;;;;;-145.63;50.07;38987.09;5021799;28;20245;-67
2023/09/05 05:49:48;;;;;;;4.75;3.25;;;;;;;-145.63;50.05;38940.16;5022252;28;20085;-67
2023/09/05 05:52:14;;;;;;;6.88;3.67;;;;;;;-145.63;50.85;38891.28;5025460;28;20025;-67
2023/09/05 05:54:41;;;;;;;9.45;3.65;;;;;;;-145.63;50.88;38947.97;5033481;28;20091;-69
2023/09/05 05:57:06;;;;;;;4.75;3.28;;;;;;;-145.63;50.05;38930.38;5030810;28;20052;-68
2023/09/05 05:59:32;;;;;;;6.00;3.15;;;;;;;-145.63;50.30;38920.59;5027662;28;20038;-67
2023/09/05 06:01:58;;;;;;;5.38;3.38;;;;;;;-145.63;49.80;38922.56;5025094;28;20210;-70
2023/09/05 06:04:24;;;;;;;3.47;2.33;;;;;;;-145.63;49.23;38920.59;5025369;28;20073;-68
2023/09/05 06:06:50;;;;;;;5.22;3.00;;;;;;;-145.63;49.14;38914.72;5021985;28;20030;-70
2023/09/05 06:09:19;;;;;;;5.95;2.85;;;;;;;-145.63;48.41;38891.28;5020287;28;20123;-71
2023/09/05 06:11:45;;;;;;;5.38;2.90;;;;;;;-145.63;48.48;38879.53;5024974;28;20030;-69
2023/09/05 06:14:14;;;;;;;5.32;2.75;;;;;;;-145.63;48.60;38871.72;5025224;28;20096;-70
2023/09/05 06:16:40;;;;;;;3.30;2.92;;;;;;;-145.63;48.62;38861.94;5025464;28;20021;-69
2023/09/05 06:19:08;;;;;;;6.32;3.13;;;;;;;-145.63;48.75;38865.84;5028170;28;20243;-67
2023/09/05 06:21:34;;;;;;;6.75;2.90;;;;;;;-145.63;48.39;38856.06;5027897;28;20257;-69
2023/09/05 06:24:00;;;;;;;5.00;2.90;;;;;;;-145.63;48.20;38832.59;5023673;28;20211;-70
2023/09/05 06:26:25;;;;;;;4.03;2.75;;;;;;;-145.63;48.13;38844.34;5025287;28;20029;-68
2023/09/05 06:28:51;;;;;;;4.05;2.92;;;;;;;-145.63;46.95;38865.84;5024160;28;20041;-69
2023/09/05 06:31:17;;;;;;;6.50;2.40;;;;;;;-145.63;46.27;38785.66;5025089;28;20033;-68
2023/09/05 06:33:42;;;;;;;5.03;2.60;;;;;;;-145.63;45.89;38824.78;5024176;28;20243;-69
2023/09/05 06:36:11;;;;;;;2.65;2.20;;;;;;;-145.63;46.05;38783.72;5034913;28;20033;-68
2023/09/05 06:38:36;;;;;;;4.20;2.13;;;;;;;-145.63;45.56;38820.88;5032242;28;20227;-68
2023/09/05 06:41:10;;;;;;;4.10;1.70;;;;;;;-145.63;45.74;38789.59;5028161;28;20030;-68
2023/09/05 06:43:36;;;;;;;3.53;1.98;;;;;;;-145.63;45.96;38779.81;5024723;28;20283;-69
2023/09/05 06:46:03;;;;;;;4.38;2.80;;;;;;;-145.63;45.20;38787.63;5023531;28;20341;-70
2023/09/05 06:48:29;;;;;;;4.00;2.38;;;;;;;-145.63;45.03;38791.53;5023516;28;20301;-69
2023/09/05 06:50:59;;;;;;;2.72;2.08;;;;;;;-145.63;44.10;38764.16;5025051;28;20045;-69
2023/09/05 06:53:27;;;;;;;2.88;1.90;;;;;;;-145.63;44.90;38750.47;5024864;28;20235;-69
2023/09/05 06:55:53;;;;;;;3.15;2.35;;;;;;;-145.63;44.63;38709.41;5021406;28;20076;-69
2023/09/05 06:58:18;;;;;;;3.38;2.45;;;;;;;-145.63;44.25;38732.88;5030076;28;20025;-70
2023/09/05 07:00:45;;;;;;;6.00;2.05;;;;;;;-145.63;43.32;38492.34;5032715;28;20128;-68
2023/09/05 07:03:13;;;;;;;5.72;4.53;;;;;;;-145.63;43.73;38713.31;5023748;28;20089;-68
2023/09/05 07:05:40;;;;;;;3.45;3.05;;;;;;;-145.63;43.47;38746.56;5024508;28;20022;-70
2023/09/05 07:08:06;;;;;;;3.40;2.38;;;;;;;-145.63;42.46;38705.50;5023150;28;20045;-68
2023/09/05 07:10:31;;;;;;;3.63;1.98;;;;;;;-145.63;42.80;38670.28;5024182;28;20084;-68
2023/09/05 07:12:57;;;;;;;3.88;2.20;;;;;;;-145.63;42.88;38646.84;5024185;28;20021;-68
2023/09/05 07:15:23;;;;;;;7.43;2.42;;;;;;;-145.63;42.48;38648.78;5024200;28;20175;-68
2023/09/05 07:17:49;;;;;;;5.05;2.38;;;;;;;-145.63;42.26;38386.78;5023909;28;20033;-69
2023/09/05 07:20:15;;;;;;;2.80;1.92;;;;;;;-145.63;41.72;38666.38;5028653;28;20093;-69
2023/09/05 07:22:41;;;;;;;2.15;1.90;;;;;;;-145.63;41.49;38631.19;5009921;28;20053;-70
2023/09/05 07:25:07;;;;;;;4.53;2.38;;;;;;;-145.63;41.71;38625.31;5010565;28;20034;-69
2023/09/05 07:27:33;;;;;;;4.18;3.78;;;;;;;-145.63;41.57;38635.09;5024358;28;20033;-70
2023/09/05 07:29:58;;;;;;;4.13;2.38;;;;;;;-145.63;41.88;38637.06;5024021;28;20045;-68
2023/09/05 07:32:24;;;;;;;5.28;3.22;;;;;;;-145.63;40.63;38621.41;5022324;28;20529;-69
2023/09/05 07:34:50;;;;;;;2.92;2.17;;;;;;;-145.63;40.77;38627.28;5022947;28;20025;-69
2023/09/05 07:37:16;;;;;;;2.75;2.05;;;;;;;-145.63;40.71;38660.53;5023717;28;20056;-68
2023/09/05 07:39:49;;;;;;;3.55;2.00;;;;;;;-145.63;40.57;38631.19;5023995;28;20298;-68
2023/09/05 07:42:15;;;;;;;3.33;2.40;;;;;;;-145.63;40.67;38619.47;5018645;28;20061;-68
2023/09/05 07:44:41;;;;;;;5.47;2.50;;;;;;;-145.63;41.15;38603.81;5023395;28;20057;-68
2023/09/05 07:47:06;;;;;;;3.63;2.50;;;;;;;-145.63;41.27;38580.34;5023404;28;20025;-68
2023/09/05 07:49:41;;;;;;;5.47;2.53;;;;;;;-145.63;40.11;38590.13;5027057;28;20093;-69
2023/09/05 07:52:06;;;;;;;6.43;2.80;;;;;;;-145.63;40.59;38568.63;5027635;28;20041;-70
2023/09/05 07:54:33;;;;;;;13.23;3.55;;;;;;;-145.63;40.44;38578.41;5023205;28;20084;-69
2023/09/05 07:56:59;;;;;;;8.32;2.75;;;;;;;-145.63;40.18;38558.84;5023376;28;20048;-68
2023/09/05 07:59:25;;;;;;;4.00;2.75;;;;;;;-145.63;39.35;38566.66;5023325;28;20021;-69
2023/09/05 08:01:50;;;;;;;5.78;2.97;;;;;;;-145.63;38.84;38566.66;5023287;28;20036;-69
2023/09/05 08:04:16;;;;;;;4.32;2.13;;;;;;;-145.63;38.50;38521.69;5022475;28;20038;-68
2023/09/05 08:06:42;;;;;;;3.22;2.00;;;;;;;-145.63;37.26;38539.28;5017375;28;20030;-68
2023/09/05 08:09:07;;;;;;;2.50;2.00;;;;;;;-145.63;37.67;38529.50;5020005;28;20041;-68
2023/09/05 08:11:33;;;;;;;4.38;2.15;;;;;;;-145.63;38.46;38529.50;5017259;28;20258;-67
2023/09/05 08:13:59;;;;;;;3.80;2.40;;;;;;;-145.63;37.71;38539.28;5017827;28;20353;-67
2023/09/05 08:16:24;;;;;;;3.95;2.17;;;;;;;-145.63;37.35;38533.41;5016757;28;20030;-69
2023/09/05 08:18:50;;;;;;;4.07;2.22;;;;;;;-145.63;37.21;38531.47;5015580;28;20067;-67
2023/09/05 08:21:17;;;;;;;7.80;2.92;;;;;;;-145.63;37.39;38521.69;5019460;28;20033;-67
2023/09/05 08:23:43;;;;;;;5.43;2.90;;;;;;;-145.63;37.18;38525.59;5018632;28;20049;-67
2023/09/05 08:26:10;;;;;;;8.23;2.28;;;;;;;-145.63;36.79;38498.22;5019897;28;20044;-68
2023/09/05 08:28:42;;;;;;;3.72;2.42;;;;;;;-145.63;37.25;38484.53;5020763;28;20041;-68
2023/09/05 08:31:09;;;;;;;6.45;2.67;;;;;;;-145.63;37.84;38433.69;5018695;28;20069;-68
2023/09/05 08:33:35;;;;;;;5.00;3.88;;;;;;;-145.63;37.82;38457.16;5017794;28;20036;-68
2023/09/05 08:36:01;;;;;;;6.75;2.55;;;;;;;-145.63;37.27;38429.78;5021074;28;20038;-68
2023/09/05 08:38:27;;;;;;;3.72;2.20;;;;;;;-145.63;35.45;38486.50;5022097;28;20089;-68
2023/09/05 08:40:52;;;;;;;4.60;2.22;;;;;;;-145.63;35.19;38468.91;5012070;28;20026;-69
2023/09/05 08:43:18;;;;;;;5.45;2.00;;;;;;;-145.63;35.06;38464.97;5023857;28;20749;-68
2023/09/05 08:45:45;;;;;;;4.03;2.38;;;;;;;-145.63;34.58;38406.31;5028384;28;20030;-68
2023/09/05 08:48:11;;;;;;;12.50;11.20;;;;;;;-145.63;34.27;38371.13;5018491;28;20029;-67
2023/09/05 08:50:40;;;;;;;4.85;3.10;;;;;;;-145.63;33.10;38283.16;5020387;28;20034;-68
2023/09/05 08:53:11;;;;;;;4.82;2.30;;;;;;;-145.63;32.64;38269.47;5022672;28;20025;-68
2023/09/05 08:55:40;;;;;;;9.07;2.20;;;;;;;-145.63;31.99;38238.16;5024268;28;20037;-67
2023/09/05 08:58:10;;;;;;;5.35;1.80;;;;;;;-145.63;31.25;38226.44;5022761;28;20037;-67
2023/09/05 09:00:36;;;;;;;3.75;1.98;;;;;;;-145.63;31.52;38097.41;5011376;28;20042;-67
2023/09/05 09:03:05;;;;;;;4.00;1.70;;;;;;;-145.63;29.67;38025.06;5018433;28;20056;-68
2023/09/05 09:05:30;;;;;;;4.90;2.03;;;;;;;-145.63;28.36;38021.16;5019402;28;20041;-67
2023/09/05 09:07:57;;;;;;;5.50;2.65;;;;;;;-145.63;29.08;38015.28;5020838;28;20026;-66
2023/09/05 09:10:23;;;;;;;2.90;2.15;;;;;;;-145.63;30.23;37942.94;5017352;28;20022;-67
2023/09/05 09:12:54;;;;;;;6.07;2.10;;;;;;;-145.63;29.62;37903.84;5023326;28;20045;-66
2023/09/05 09:15:24;;;;;;;3.95;2.33;;;;;;;-145.63;28.78;37948.81;5019521;28;20057;-68
2023/09/05 09:17:51;;;;;;;4.68;2.28;;;;;;;-145.63;30.12;37946.84;5020380;28;20038;-67
2023/09/05 09:20:21;;;;;;;7.65;5.60;;;;;;;-145.63;28.88;37962.50;5015901;28;20105;-67
2023/09/05 09:22:50;;;;;;;11.48;7.88;;;;;;;-145.63;28.84;37851.06;5019717;28;20182;-66
2023/09/05 09:25:23;;;;;;;6.78;4.57;;;;;;;-145.63;28.37;37905.81;5018807;28;20057;-67
2023/09/05 09:27:57;;;;;;;5.47;2.47;;;;;;;-145.63;28.00;37880.38;5024208;28;20032;-68
2023/09/05 09:30:26;;;;;;;4.78;2.40;;;;;;;-145.63;29.50;37923.41;5026127;28;20140;-68
2023/09/05 09:32:53;;;;;;;7.07;2.78;;;;;;;-145.63;29.45;37923.41;5027241;28;20104;-68
2023/09/05 09:35:20;;;;;;;3.67;2.72;;;;;;;-145.63;29.94;37909.72;5025623;28;20042;-67
2023/09/05 09:37:47;;;;;;;3.42;2.75;;;;;;;-145.63;29.52;37960.53;5025806;28;20022;-67
2023/09/05 09:40:16;;;;;;;6.03;2.70;;;;;;;-145.63;30.10;37999.66;5029683;28;20033;-68
2023/09/05 09:42:48;;;;;;;5.25;2.60;;;;;;;-145.63;30.44;37962.50;5024912;28;20084;-68
2023/09/05 09:45:18;;;;;;;9.60;2.75;;;;;;;-145.63;30.40;38003.56;5032912;28;20037;-67
2023/09/05 09:47:51;;;;;;;7.10;3.13;;;;;;;-145.63;28.90;38120.88;5026876;28;20045;-68
2023/09/05 09:50:19;;;;;;;5.28;3.03;;;;;;;-145.63;30.18;38044.63;5035684;28;20021;-68
2023/09/05 09:52:48;;;;;;;4.57;2.80;;;;;;;-145.63;30.25;38109.13;5022385;28;20022;-69
2023/09/05 09:55:15;;;;;;;7.05;2.78;;;;;;;-145.63;30.12;38183.44;5019317;28;20050;-69
2023/09/05 09:58:01;;;;;;;8.63;2.63;;;;;;;-145.63;29.32;38242.09;5034402;28;20097;-68
2023/09/05 10:00:30;;;;;;;3.72;2.70;;;;;;;-145.63;29.31;38234.25;5020404;28;20229;-68
2023/09/05 10:02:57;;;;;;;4.50;2.30;;;;;;;-145.63;28.48;38191.25;5025674;28;20368;-68
2023/09/05 10:05:25;;;;;;;9.30;3.25;;;;;;;-145.63;28.76;38187.34;5025183;28;20030;-68
2023/09/05 10:07:54;;;;;;;4.05;2.65;;;;;;;-145.63;29.45;38177.56;5014048;28;20022;-68
2023/09/05 10:10:20;;;;;;;2.70;2.50;;;;;;;-145.63;29.60;38201.03;5031039;28;20368;-69
2023/09/05 10:12:46;;;;;;;5.00;3.05;;;;;;;-145.63;30.10;38246.00;5025180;28;20034;-69
2023/09/05 10:15:13;;;;;;;6.95;2.85;;;;;;;-145.63;29.79;38273.38;5041338;28;20025;-68
2023/09/05 10:17:43;;;;;;;5.75;3.08;;;;;;;-145.63;30.20;38277.28;5027962;28;20053;-69
2023/09/05 10:20:14;;;;;;;5.13;3.05;;;;;;;-145.63;30.53;38296.81;5028660;28;20097;-71
2023/09/05 10:22:43;;;;;;;5.20;3.08;;;;;;;-145.63;30.90;38332.03;5024340;28;20340;-70
2023/09/05 10:25:12;;;;;;;7.47;3.38;;;;;;;-145.63;30.76;38273.38;5024897;28;20046;-69
2023/09/05 10:27:38;;;;;;;5.00;4.05;;;;;;;-145.63;30.60;38261.63;5022413;28;20047;-68
2023/09/05 10:30:04;;;;;;;4.47;3.35;;;;;;;-145.63;29.65;38306.59;5025164;28;20570;-69
2023/09/05 10:32:32;;;;;;;5.47;3.30;;;;;;;-145.63;30.80;38228.41;5019715;28;20041;-69
2023/09/05 10:35:02;;;;;;;6.43;3.33;;;;;;;-145.63;29.63;38257.72;5020909;28;20041;-69
2023/09/05 10:37:34;;;;;;;5.15;3.30;;;;;;;-145.63;30.34;38244.03;5020423;28;20026;-68
2023/09/05 10:40:10;;;;;;;4.85;2.80;;;;;;;-145.63;28.08;38300.75;4999569;28;20301;-68
2023/09/05 10:42:43;;;;;;;3.65;2.50;;;;;;;-145.63;27.83;38224.47;5012862;28;20037;-68
2023/09/05 10:45:21;;;;;;;5.57;3.03;;;;;;;-145.63;27.88;38259.69;5023332;28;20328;-69
2023/09/05 10:47:49;;;;;;;4.35;2.85;;;;;;;-145.63;29.99;38267.50;5020958;28;20041;-70
2023/09/05 10:50:19;;;;;;;5.03;2.80;;;;;;;-145.63;29.26;38269.47;5028338;28;20042;-70
2023/09/05 10:52:49;;;;;;;2.80;2.50;;;;;;;-145.63;25.80;38283.16;5019643;28;20084;-70
2023/09/05 10:55:29;;;;;;;5.38;2.50;;;;;;;-145.63;26.93;38230.34;5021968;28;20041;-69
2023/09/05 10:57:56;;;;;;;3.38;2.38;;;;;;;-145.63;26.42;38263.59;5034216;28;20088;-69
2023/09/05 11:00:26;;;;;;;4.32;2.50;;;;;;;-145.63;27.17;38326.16;5025276;28;20413;-69
2023/09/05 11:02:55;;;;;;;3.10;2.80;;;;;;;-145.63;25.78;38351.56;5024424;28;20040;-70
2023/09/05 11:05:24;;;;;;;5.55;2.92;;;;;;;-145.63;25.89;38277.28;5024052;28;20060;-69
2023/09/05 11:07:50;;;;;;;3.35;2.40;;;;;;;-145.63;26.68;38281.19;5024574;28;20106;-70
2023/09/05 11:10:26;;;;;;;5.25;2.50;;;;;;;-145.63;27.49;38257.72;5024297;28;20030;-69
2023/09/05 11:12:52;;;;;;;3.53;2.88;;;;;;;-145.63;26.05;38302.69;5026608;28;20071;-67
2023/09/05 11:15:43;;;;;;;4.18;3.20;;;;;;;-145.63;24.49;38330.06;5039525;28;20257;-68
2023/09/05 11:18:14;;;;;;;;;;;;;;;-145.63;24.94;38294.88;5022853;28;20026;-68